Time;durP1;ratioP1;P1;durP2;ratioP2;P2;SDS_P1;SDS_P2;PMS_P1;PMS_P2;Temp;Humidity;BMP_temperature;BMP_pressure;BME280_temperature;BME280_humidity;BME280_pressure;Samples;Min_cycle;Max_cycle;Signal;HPM_P1;HPM_P2
2021/05/18 00:00:26;;;;;;;3.28;0.38;;;22.40;52.20;;;;;;5040837;28;20559;-35
2021/05/18 00:02:53;;;;;;;0.75;0.40;;;22.40;52.10;;;;;;5050151;28;20595;-39
2021/05/18 00:05:21;;;;;;;1.70;0.80;;;22.40;52.10;;;;;;5035678;28;20152;-37
2021/05/18 00:07:57;;;;;;;2.55;0.38;;;22.40;52.10;;;;;;5030756;28;20037;-43
2021/05/18 00:13:11;;;;;;;1.35;0.30;;;22.40;52.10;;;;;;5031935;28;20375;-36
2021/05/18 00:15:38;;;;;;;0.73;0.40;;;22.40;52.10;;;;;;5032006;28;20037;-35
2021/05/18 00:18:04;;;;;;;2.10;0.55;;;22.40;52.00;;;;;;5030041;28;20156;-35
2021/05/18 00:20:30;;;;;;;0.45;0.20;;;22.40;52.10;;;;;;5031182;28;20116;-36
2021/05/18 00:22:56;;;;;;;0.55;0.30;;;22.40;52.00;;;;;;5031183;28;20455;-39
2021/05/18 00:25:22;;;;;;;1.08;0.30;;;22.40;52.00;;;;;;5036363;28;20030;-35
2021/05/18 00:27:48;;;;;;;2.35;0.40;;;22.40;52.00;;;;;;5034272;28;20485;-45
2021/05/18 00:30:14;;;;;;;1.98;0.40;;;22.40;52.00;;;;;;5035766;28;20034;-34
2021/05/18 00:32:40;;;;;;;1.40;0.30;;;22.30;52.00;;;;;;5032006;28;20091;-35
2021/05/18 00:35:09;;;;;;;0.32;0.30;;;22.30;51.90;;;;;;5030572;28;20117;-34
2021/05/18 00:37:35;;;;;;;4.20;1.48;;;22.30;52.00;;;;;;5032369;28;20025;-34
2021/05/18 00:40:01;;;;;;;1.48;0.40;;;22.20;51.90;;;;;;5031252;28;20064;-36
2021/05/18 00:42:26;;;;;;;1.85;0.40;;;22.20;52.00;;;;;;5031960;28;20471;-34
2021/05/18 00:44:54;;;;;;;1.17;0.50;;;22.20;51.90;;;;;;5030749;28;20027;-35
2021/05/18 00:47:20;;;;;;;1.05;0.38;;;22.20;52.00;;;;;;5029491;28;20467;-36
2021/05/18 00:49:45;;;;;;;1.98;0.30;;;22.20;51.90;;;;;;5030447;28;20132;-35
2021/05/18 00:52:11;;;;;;;0.82;0.43;;;22.20;51.90;;;;;;5031408;28;20510;-34
2021/05/18 00:55:04;;;;;;;1.35;0.30;;;22.20;51.90;;;;;;5031966;28;20037;-34
2021/05/18 01:00:11;;;;;;;1.63;0.30;;;22.20;51.80;;;;;;5032210;28;20168;-35
2021/05/18 01:02:37;;;;;;;3.75;0.30;;;22.20;51.80;;;;;;5030062;28;20115;-35
2021/05/18 01:05:18;;;;;;;1.80;0.20;;;22.20;51.80;;;;;;5029970;28;20072;-34
2021/05/18 01:07:46;;;;;;;0.60;0.38;;;22.20;51.80;;;;;;5031764;28;20078;-34
2021/05/18 01:10:13;;;;;;;1.85;0.40;;;22.20;51.80;;;;;;5029710;28;20034;-37
2021/05/18 01:12:39;;;;;;;0.63;0.30;;;22.20;51.70;;;;;;5030506;28;20394;-36
2021/05/18 01:15:06;;;;;;;1.48;0.22;;;22.20;51.70;;;;;;5031020;28;20029;-36
2021/05/18 01:17:31;;;;;;;1.60;0.30;;;22.10;51.70;;;;;;5029023;28;20025;-36
2021/05/18 01:20:07;;;;;;;0.20;0.20;;;22.20;51.60;;;;;;5030954;28;20030;-37
2021/05/18 01:22:33;;;;;;;0.60;0.30;;;22.10;51.60;;;;;;5031479;28;20437;-34
2021/05/18 01:24:58;;;;;;;0.32;0.30;;;22.20;51.60;;;;;;5030262;28;20033;-37
2021/05/18 01:27:24;;;;;;;1.02;0.30;;;22.10;51.60;;;;;;5031538;28;20443;-37
2021/05/18 01:29:50;;;;;;;0.55;0.50;;;22.20;51.60;;;;;;5034638;28;20518;-47
2021/05/18 01:32:21;;;;;;;0.47;0.25;;;22.10;51.50;;;;;;5029546;28;20061;-38
2021/05/18 01:34:47;;;;;;;1.52;0.30;;;22.20;51.50;;;;;;5031428;28;20035;-36
2021/05/18 01:37:12;;;;;;;2.38;0.40;;;22.10;51.60;;;;;;5029417;28;20473;-37
2021/05/18 01:39:50;;;;;;;1.40;0.80;;;22.10;51.50;;;;;;5031515;28;20029;-36
2021/05/18 01:45:05;;;;;;;0.85;0.30;;;22.10;51.40;;;;;;5024479;28;20079;-37
2021/05/18 01:47:31;;;;;;;0.55;0.20;;;22.10;51.40;;;;;;5030912;28;20028;-36
2021/05/18 01:49:57;;;;;;;0.57;0.30;;;22.10;51.40;;;;;;5030278;28;20037;-36
2021/05/18 01:52:23;;;;;;;0.38;0.25;;;22.10;51.40;;;;;;5031043;28;20061;-36
2021/05/18 01:54:50;;;;;;;0.65;0.20;;;22.10;51.40;;;;;;5030599;28;20030;-44
2021/05/18 01:59:42;;;;;;;1.73;0.30;;;22.10;51.40;;;;;;5035883;28;20087;-39
2021/05/18 02:02:07;;;;;;;0.40;0.30;;;22.10;51.30;;;;;;5030535;28;20116;-36
2021/05/18 02:04:38;;;;;;;0.85;0.40;;;22.10;52.00;;;;;;5029623;28;20471;-36
2021/05/18 02:07:07;;;;;;;0.77;0.22;;;22.10;51.40;;;;;;5029482;28;20471;-36
2021/05/18 02:09:33;;;;;;;0.63;0.20;;;22.10;51.40;;;;;;5034977;28;20024;-36
2021/05/18 02:12:00;;;;;;;0.63;0.40;;;22.10;51.40;;;;;;5033228;28;20453;-36
2021/05/18 02:14:29;;;;;;;0.30;0.25;;;22.10;51.30;;;;;;5034872;28;20104;-36
2021/05/18 02:17:12;;;;;;;2.67;0.30;;;22.10;51.40;;;;;;5033920;28;20083;-34
2021/05/18 02:20:20;;;;;;;0.73;0.60;;;22.10;51.30;;;;;;5034751;28;20112;-36
2021/05/18 02:25:17;;;;;;;1.33;0.13;;;22.10;51.30;;;;;;5026111;28;20462;-36
2021/05/18 02:27:43;;;;;;;0.20;0.20;;;22.10;51.30;;;;;;5032277;28;20029;-36
2021/05/18 02:30:10;;;;;;;0.47;0.38;;;22.10;51.30;;;;;;5033008;28;20648;-37
2021/05/18 02:32:37;;;;;;;0.50;0.38;;;22.10;51.20;;;;;;5033248;28;20128;-37
2021/05/18 02:35:06;;;;;;;0.60;0.30;;;22.10;51.20;;;;;;5031876;28;20364;-37
2021/05/18 02:37:32;;;;;;;1.83;0.20;;;22.10;51.20;;;;;;5031482;28;20036;-37
2021/05/18 02:39:57;;;;;;;0.55;0.40;;;22.10;51.20;;;;;;5031864;28;20029;-36
2021/05/18 02:42:23;;;;;;;0.70;0.22;;;22.10;51.20;;;;;;5032893;28;20033;-36
2021/05/18 02:50:03;;;;;;;0.88;0.40;;;22.10;51.10;;;;;;5030404;28;21568;-36
2021/05/18 02:52:31;;;;;;;1.27;0.30;;;22.10;51.10;;;;;;5031717;28;20509;-40
2021/05/18 02:54:57;;;;;;;0.63;0.30;;;22.10;51.10;;;;;;5031821;28;20030;-37
2021/05/18 02:57:34;;;;;;;0.40;0.30;;;22.10;51.00;;;;;;5033028;28;20036;-36
2021/05/18 03:00:04;;;;;;;0.57;0.30;;;22.10;51.00;;;;;;5032677;28;20136;-42
2021/05/18 03:02:30;;;;;;;0.47;0.20;;;22.10;51.00;;;;;;5028952;28;20091;-39
2021/05/18 03:04:55;;;;;;;0.50;0.20;;;22.00;50.90;;;;;;5033818;28;20466;-37
2021/05/18 03:07:22;;;;;;;0.40;0.30;;;22.10;51.00;;;;;;5029493;28;20029;-36
2021/05/18 03:09:48;;;;;;;0.80;0.30;;;22.10;51.00;;;;;;5032577;28;20138;-38
2021/05/18 03:12:13;;;;;;;1.33;0.35;;;22.10;51.00;;;;;;5031686;28;20449;-36
2021/05/18 03:14:39;;;;;;;1.50;0.60;;;22.10;50.90;;;;;;5032014;28;20041;-39
2021/05/18 03:17:05;;;;;;;0.73;0.40;;;22.10;50.90;;;;;;5030642;28;20057;-36
2021/05/18 03:19:32;;;;;;;1.45;0.40;;;22.00;50.90;;;;;;5030850;28;20056;-36
2021/05/18 03:21:58;;;;;;;0.50;0.20;;;22.10;50.90;;;;;;5031258;28;20029;-37
2021/05/18 03:24:24;;;;;;;0.98;0.20;;;22.10;50.90;;;;;;5031813;28;20387;-36
2021/05/18 03:26:50;;;;;;;0.60;0.43;;;22.10;50.80;;;;;;5032270;28;20038;-49
2021/05/18 03:29:32;;;;;;;0.60;0.30;;;22.10;50.80;;;;;;5035259;28;20124;-37
2021/05/18 03:34:42;;;;;;;3.67;0.30;;;22.10;50.80;;;;;;5032624;28;20084;-36
2021/05/18 03:39:51;;;;;;;1.02;0.30;;;22.10;50.80;;;;;;5033376;28;20056;-36
2021/05/18 03:42:31;;;;;;;1.27;0.32;;;22.10;50.80;;;;;;5032653;28;20034;-36
2021/05/18 03:58:52;;;;;;;0.63;0.40;;;22.00;50.70;;;;;;5032590;28;20052;-36
2021/05/18 04:04:11;;;;;;;1.33;0.28;;;22.00;50.70;;;;;;5028578;28;20029;-36
2021/05/18 04:12:50;;;;;;;0.38;0.30;;;22.00;50.60;;;;;;5031934;28;20083;-36
2021/05/18 04:22:56;;;;;;;1.48;0.40;;;22.10;50.60;;;;;;5032036;28;20048;-37
2021/05/18 04:52:17;;;;;;;0.65;0.30;;;22.00;50.40;;;;;;5030970;28;20034;-36
2021/05/18 05:00:09;;;;;;;0.65;0.22;;;22.00;50.30;;;;;;5027801;28;20053;-45
2021/05/18 05:10:13;;;;;;;0.70;0.30;;;22.00;50.30;;;;;;5030780;28;20451;-36
2021/05/18 05:15:06;;;;;;;0.32;0.28;;;22.00;50.20;;;;;;5039434;28;20112;-36
2021/05/18 05:17:32;;;;;;;0.90;0.30;;;22.00;50.20;;;;;;5028609;28;20100;-38
2021/05/18 05:19:57;;;;;;;1.13;0.30;;;22.00;50.20;;;;;;5026764;28;20025;-37
2021/05/18 05:22:23;;;;;;;0.35;0.20;;;22.00;50.20;;;;;;5031246;28;20029;-36
2021/05/18 05:24:49;;;;;;;0.40;0.30;;;22.00;50.20;;;;;;5031221;28;20053;-36
2021/05/18 05:27:14;;;;;;;0.60;0.25;;;22.00;50.20;;;;;;5031037;28;20091;-36
2021/05/18 05:29:40;;;;;;;0.43;0.30;;;22.00;50.20;;;;;;5037684;28;20029;-36
2021/05/18 05:32:06;;;;;;;0.70;0.20;;;22.00;50.10;;;;;;5036567;28;20156;-36
2021/05/18 05:34:31;;;;;;;0.40;0.25;;;22.10;50.20;;;;;;5030241;28;20026;-36
2021/05/18 05:36:57;;;;;;;0.38;0.28;;;22.00;50.20;;;;;;5030511;28;20533;-48
2021/05/18 05:39:23;;;;;;;0.80;0.30;;;22.00;50.20;;;;;;5022255;28;20033;-36
2021/05/18 05:41:54;;;;;;;0.22;0.20;;;22.00;50.30;;;;;;5029962;28;20037;-37
2021/05/18 05:44:21;;;;;;;0.30;0.30;;;22.00;50.20;;;;;;5033627;28;20061;-38
2021/05/18 05:46:48;;;;;;;1.75;0.40;;;22.00;50.20;;;;;;5035548;28;20031;-36
2021/05/18 05:49:14;;;;;;;0.60;0.30;;;22.00;50.20;;;;;;5042112;28;20470;-36
2021/05/18 05:51:40;;;;;;;1.85;0.30;;;22.00;50.20;;;;;;5035679;28;20033;-35
2021/05/18 05:54:06;;;;;;;0.75;0.20;;;22.00;50.50;;;;;;5035098;28;20033;-37
2021/05/18 05:56:33;;;;;;;1.85;0.47;;;22.00;50.50;;;;;;5033574;28;20029;-36
2021/05/18 05:59:01;;;;;;;1.05;0.52;;;22.10;50.70;;;;;;5036257;28;20481;-36
2021/05/18 06:01:29;;;;;;;3.10;0.80;;;22.00;50.50;;;;;;5036937;28;20425;-36
2021/05/18 06:03:55;;;;;;;2.10;0.60;;;22.00;50.10;;;;;;5034989;28;20026;-43
2021/05/18 06:06:20;;;;;;;5.18;0.90;;;22.00;49.60;;;;;;5033145;28;20360;-45
2021/05/18 06:08:47;;;;;;;2.65;0.60;;;22.00;50.20;;;;;;5033732;28;20033;-35
2021/05/18 06:11:19;;;;;;;6.88;1.08;;;22.10;50.50;;;;;;5033842;28;20033;-36
2021/05/18 06:43:48;;;;;;;2.83;0.77;;;22.10;51.80;;;;;;5036629;28;20079;-36
2021/05/18 06:48:58;;;;;;;6.15;1.02;;;22.20;52.00;;;;;;5033627;28;20037;-46
2021/05/18 06:51:24;;;;;;;3.08;0.60;;;22.20;52.10;;;;;;5033918;28;20073;-35
2021/05/18 06:53:50;;;;;;;2.88;0.70;;;22.20;52.00;;;;;;5032594;28;20037;-36
2021/05/18 06:56:16;;;;;;;5.07;1.13;;;22.20;52.10;;;;;;5033293;28;20115;-36
2021/05/18 07:01:08;;;;;;;2.53;0.50;;;22.20;52.20;;;;;;5033421;28;20061;-36
2021/05/18 07:03:44;;;;;;;2.85;0.70;;;22.20;52.20;;;;;;5032616;28;20049;-35
2021/05/18 07:09:06;;;;;;;3.35;0.80;;;22.20;52.90;;;;;;5026876;28;20112;-45
2021/05/18 07:11:32;;;;;;;4.10;0.63;;;22.10;52.20;;;;;;5032784;28;20029;-36
2021/05/18 07:13:57;;;;;;;2.08;0.77;;;22.10;52.20;;;;;;5032284;28;20371;-47
2021/05/18 07:16:23;;;;;;;2.47;0.70;;;22.10;52.20;;;;;;5032536;28;20029;-35
2021/05/18 07:18:50;;;;;;;3.08;0.68;;;22.20;52.30;;;;;;5033789;28;20482;-35
2021/05/18 07:21:16;;;;;;;2.30;0.90;;;22.10;52.20;;;;;;5032442;28;20065;-36
2021/05/18 07:23:43;;;;;;;1.35;0.47;;;22.20;52.20;;;;;;5032475;28;20029;-36
2021/05/18 07:26:08;;;;;;;2.85;0.82;;;22.10;52.10;;;;;;5033286;28;20366;-35
2021/05/18 07:28:35;;;;;;;3.40;0.60;;;22.20;52.20;;;;;;5033251;28;20032;-36
2021/05/18 07:31:03;;;;;;;1.00;0.45;;;22.20;52.10;;;;;;5032414;28;20095;-47
2021/05/18 07:33:29;;;;;;;2.92;0.80;;;22.20;52.10;;;;;;5033494;28;20082;-36
2021/05/18 07:36:00;;;;;;;6.47;0.80;;;22.20;52.10;;;;;;5032973;28;20029;-34
2021/05/18 07:38:27;;;;;;;2.13;0.93;;;22.20;52.10;;;;;;5032559;28;20048;-34
2021/05/18 07:40:54;;;;;;;1.05;0.77;;;22.20;52.00;;;;;;5033393;28;20040;-35
2021/05/18 07:43:20;;;;;;;2.20;0.90;;;22.20;52.00;;;;;;5030959;28;20582;-35
2021/05/18 07:45:55;;;;;;;1.25;0.77;;;22.10;52.00;;;;;;5033067;28;20048;-35
2021/05/18 07:48:33;;;;;;;2.60;1.17;;;22.20;52.00;;;;;;5030015;28;20655;-35
2021/05/18 07:59:22;;;;;;;2.00;0.60;;;22.20;51.90;;;;;;5034659;28;20060;-35
2021/05/18 08:07:17;;;;;;;0.90;0.50;;;22.20;51.80;;;;;;5031204;28;20032;-35
2021/05/18 08:09:50;;;;;;;3.42;0.63;;;22.20;51.80;;;;;;5031716;28;20029;-35
2021/05/18 08:12:16;;;;;;;2.08;0.50;;;22.20;51.80;;;;;;5031544;28;20453;-34
2021/05/18 08:14:55;;;;;;;1.40;0.93;;;22.20;51.80;;;;;;5038857;28;20060;-39
2021/05/18 08:17:35;;;;;;;1.30;0.68;;;22.20;51.80;;;;;;5027781;28;20191;-35
2021/05/18 09:33:41;;;;;;;2.30;0.50;;;22.50;50.90;;;;;;5007010;28;20044;-34
2021/05/18 10:38:46;;;;;;;1.05;0.40;;;22.80;49.90;;;;;;5033284;28;20065;-35
2021/05/18 10:41:18;;;;;;;1.10;0.30;;;22.70;49.80;;;;;;5032142;28;20040;-35
2021/05/18 10:43:55;;;;;;;1.23;0.40;;;22.80;49.80;;;;;;5030799;28;20034;-35
2021/05/18 10:46:24;;;;;;;0.63;0.40;;;22.80;49.90;;;;;;5031525;28;20043;-36
2021/05/18 10:48:54;;;;;;;2.80;0.43;;;22.80;49.80;;;;;;5034471;28;20029;-35
2021/05/18 10:51:22;;;;;;;1.17;0.50;;;22.80;49.80;;;;;;5031476;28;20489;-34
2021/05/18 10:54:07;;;;;;;1.17;0.55;;;22.80;49.70;;;;;;5032391;28;20028;-35
2021/05/18 10:57:11;;;;;;;2.22;0.40;;;22.90;49.70;;;;;;5033432;28;20036;-34
2021/05/18 11:00:07;;;;;;;0.80;0.28;;;22.80;49.60;;;;;;5032996;28;20054;-34
2021/05/18 11:02:38;;;;;;;0.47;0.30;;;22.80;49.90;;;;;;5028275;28;20047;-35
2021/05/18 11:05:05;;;;;;;4.13;0.60;;;22.90;50.10;;;;;;5033004;28;20029;-42
2021/05/18 11:07:42;;;;;;;1.05;0.40;;;22.80;49.80;;;;;;5032472;28;20120;-35
2021/05/18 11:10:14;;;;;;;1.02;0.43;;;22.80;49.60;;;;;;5031924;28;20026;-37
2021/05/18 11:12:40;;;;;;;0.90;0.32;;;22.90;49.60;;;;;;5032337;28;20079;-35
2021/05/18 11:15:20;;;;;;;1.30;0.40;;;22.90;49.50;;;;;;5035902;28;20487;-47
2021/05/18 11:17:49;;;;;;;1.42;0.40;;;22.90;49.30;;;;;;5032483;28;20029;-35
2021/05/18 11:26:06;;;;;;;1.55;0.40;;;22.90;49.30;;;;;;5035344;28;20044;-36
2021/05/18 11:28:37;;;;;;;1.50;1.08;;;22.90;49.10;;;;;;5031671;28;20030;-37
2021/05/18 11:31:07;;;;;;;2.35;0.30;;;22.80;49.40;;;;;;5034448;28;20065;-41
2021/05/18 11:33:35;;;;;;;4.40;1.30;;;22.90;49.40;;;;;;5032999;28;20045;-34
2021/05/18 11:36:12;;;;;;;1.48;0.68;;;22.90;49.50;;;;;;5031664;28;20087;-34
2021/05/18 11:39:11;;;;;;;1.15;0.50;;;22.90;49.10;;;;;;5026027;28;20386;-34
2021/05/18 11:41:39;;;;;;;0.40;0.30;;;23.00;48.90;;;;;;5024073;28;20103;-35
2021/05/18 11:44:12;;;;;;;1.58;0.30;;;23.00;48.70;;;;;;5033216;28;20022;-43
2021/05/18 11:46:49;;;;;;;1.83;0.60;;;22.90;48.80;;;;;;5031575;28;20040;-34
2021/05/18 11:49:16;;;;;;;2.42;0.40;;;23.00;48.90;;;;;;5032462;28;20029;-39
2021/05/18 11:51:48;;;;;;;2.60;0.40;;;23.00;49.00;;;;;;5031696;28;20037;-35
2021/05/18 11:54:16;;;;;;;1.38;0.40;;;22.90;49.10;;;;;;5032091;28;20029;-35
2021/05/18 11:56:43;;;;;;;0.75;0.40;;;22.90;49.00;;;;;;5031243;28;20096;-38
2021/05/18 11:59:16;;;;;;;2.22;0.50;;;22.90;49.00;;;;;;5032398;28;20401;-44
2021/05/18 12:01:44;;;;;;;0.95;0.40;;;22.90;48.70;;;;;;5031991;28;20029;-35
2021/05/18 12:04:12;;;;;;;1.02;0.28;;;22.90;48.90;;;;;;5031746;28;20434;-36
2021/05/18 12:06:52;;;;;;;0.70;0.40;;;22.90;48.90;;;;;;5028175;28;20355;-35
2021/05/18 12:09:17;;;;;;;0.80;0.43;;;22.90;48.90;;;;;;5030480;28;20064;-35
2021/05/18 12:11:43;;;;;;;0.98;0.52;;;22.90;48.80;;;;;;5032198;28;20490;-34
2021/05/18 12:14:10;;;;;;;1.77;0.45;;;22.90;49.00;;;;;;5031893;28;20036;-45
2021/05/18 12:16:43;;;;;;;1.75;0.40;;;23.00;49.20;;;;;;5031969;28;20474;-34
2021/05/18 12:19:14;;;;;;;0.50;0.50;;;22.90;49.20;;;;;;5031839;28;20029;-43
2021/05/18 12:21:43;;;;;;;0.40;0.30;;;23.00;49.10;;;;;;5032484;28;20033;-34
2021/05/18 12:24:19;;;;;;;2.03;0.38;;;23.00;49.10;;;;;;5031055;28;20123;-43
2021/05/18 12:27:00;;;;;;;3.13;0.77;;;23.00;49.00;;;;;;5049366;28;20052;-35
2021/05/18 12:29:33;;;;;;;3.92;0.40;;;23.00;49.10;;;;;;5037749;28;20762;-36
2021/05/18 12:32:28;;;;;;;2.50;0.30;;;23.00;49.10;;;;;;5021505;28;20045;-36
2021/05/18 12:34:58;;;;;;;0.73;0.30;;;23.00;49.10;;;;;;5031475;28;20076;-37
2021/05/18 12:37:32;;;;;;;0.70;0.40;;;23.00;49.00;;;;;;5030935;28;20027;-36
2021/05/18 12:39:59;;;;;;;1.73;0.30;;;23.00;49.20;;;;;;5023177;28;20053;-34
2021/05/18 12:42:27;;;;;;;0.60;0.30;;;22.90;49.10;;;;;;5031527;28;20030;-34
2021/05/18 12:45:05;;;;;;;1.48;0.47;;;22.90;49.30;;;;;;5031599;28;20030;-36
2021/05/18 12:47:36;;;;;;;3.08;0.45;;;23.00;49.30;;;;;;5029820;28;20825;-35
2021/05/18 12:50:05;;;;;;;0.85;0.38;;;23.10;49.00;;;;;;5032024;28;20455;-36
2021/05/18 12:52:39;;;;;;;2.88;0.50;;;23.10;49.10;;;;;;5029911;28;20033;-43
2021/05/18 12:55:26;;;;;;;2.75;0.57;;;23.00;49.40;;;;;;5023796;28;20121;-36
2021/05/18 12:57:58;;;;;;;2.25;0.70;;;23.00;49.90;;;;;;5031526;28;20068;-36
2021/05/18 13:00:35;;;;;;;2.45;0.55;;;23.00;50.10;;;;;;5039009;28;20045;-36
2021/05/18 13:03:13;;;;;;;3.10;0.60;;;23.00;51.00;;;;;;5036727;28;20044;-36
2021/05/18 13:05:41;;;;;;;2.30;0.50;;;23.00;50.20;;;;;;5030565;28;20117;-37
2021/05/18 13:08:45;;;;;;;1.80;0.93;;;23.00;50.40;;;;;;5031133;28;20482;-36
2021/05/18 13:13:55;;;;;;;1.27;0.47;;;23.00;50.50;;;;;;5031202;28;20037;-36
2021/05/18 13:16:25;;;;;;;0.73;0.35;;;22.90;50.70;;;;;;5033357;28;20029;-36
2021/05/18 13:19:12;;;;;;;1.48;0.40;;;22.90;51.00;;;;;;5031687;28;20033;-36
2021/05/18 13:21:50;;;;;;;3.05;0.60;;;22.90;51.10;;;;;;5014412;28;20494;-40
2021/05/18 13:26:44;;;;;;;12.20;1.70;;;22.80;51.10;;;;;;5028332;28;20370;-36
2021/05/18 13:29:16;;;;;;;1.88;0.47;;;22.80;51.00;;;;;;5030157;28;20041;-46
2021/05/18 13:31:42;;;;;;;;;;;22.80;50.90;;;;;;5031027;28;20118;-40
2021/05/18 13:34:08;;;;;;;2.53;0.82;;;22.80;50.70;;;;;;5030214;28;19909;-44
2021/05/18 13:36:35;;;;;;;5.57;1.15;;;22.80;50.70;;;;;;5031006;28;20033;-36
2021/05/18 13:39:05;;;;;;;2.17;0.60;;;22.80;50.60;;;;;;5031471;28;20402;-36
2021/05/18 13:41:30;;;;;;;8.85;1.15;;;22.80;50.70;;;;;;5030517;28;20271;-36
2021/05/18 13:43:56;;;;;;;2.08;0.47;;;22.70;50.70;;;;;;5046326;28;20128;-36
2021/05/18 13:46:21;;;;;;;4.90;0.50;;;22.70;50.60;;;;;;5031713;28;20433;-36
2021/05/18 13:48:48;;;;;;;2.33;0.60;;;22.80;50.60;;;;;;5030940;28;20552;-44
2021/05/18 13:51:14;;;;;;;1.58;0.50;;;22.80;50.40;;;;;;5029243;28;20033;-38
2021/05/18 13:53:43;;;;;;;3.20;0.47;;;22.70;50.30;;;;;;5031303;28;20034;-36
2021/05/18 13:56:10;;;;;;;3.40;0.50;;;22.80;50.40;;;;;;5030319;28;20037;-40
2021/05/18 13:58:36;;;;;;;1.67;0.77;;;22.80;50.40;;;;;;5028960;28;20054;-36
2021/05/18 14:01:07;;;;;;;2.00;0.50;;;22.70;50.30;;;;;;5029707;28;20037;-36
2021/05/18 14:03:34;;;;;;;2.03;0.50;;;22.70;50.30;;;;;;5024517;28;20026;-35
2021/05/18 14:06:00;;;;;;;2.75;0.40;;;22.70;50.50;;;;;;5034660;28;20475;-35
2021/05/18 14:08:35;;;;;;;1.63;0.55;;;22.60;50.60;;;;;;5034041;28;20029;-36
2021/05/18 14:11:27;;;;;;;1.40;0.32;;;22.50;50.50;;;;;;5033934;28;20041;-36
2021/05/18 14:13:55;;;;;;;2.00;0.43;;;22.50;50.50;;;;;;5034906;28;20068;-36
2021/05/18 14:16:23;;;;;;;2.83;0.30;;;22.50;50.50;;;;;;5037032;28;20111;-36
2021/05/18 14:18:57;;;;;;;1.10;0.38;;;22.50;50.40;;;;;;5034783;28;20033;-36
2021/05/18 14:21:24;;;;;;;2.30;0.40;;;22.40;50.40;;;;;;5030990;28;20485;-36
2021/05/18 14:26:16;;;;;;;2.55;0.75;;;22.40;50.40;;;;;;5033500;28;20075;-39
2021/05/18 14:28:41;;;;;;;1.42;0.47;;;22.40;50.40;;;;;;5033938;28;20121;-36
2021/05/18 14:31:10;;;;;;;1.33;0.30;;;22.40;50.50;;;;;;5034756;28;20169;-35
2021/05/18 14:33:37;;;;;;;1.25;0.40;;;22.50;50.50;;;;;;5032246;28;20056;-36
2021/05/18 14:36:04;;;;;;;2.67;0.40;;;22.60;50.40;;;;;;5033902;28;20111;-35
2021/05/18 14:38:30;;;;;;;1.70;0.40;;;22.60;50.20;;;;;;5033804;28;20029;-36
2021/05/18 14:44:41;;;;;;;0.70;0.32;;;22.70;50.20;;;;;;5034393;28;20036;-35
2021/05/18 14:54:59;;;;;;;0.57;0.38;;;22.80;50.10;;;;;;5033860;28;20044;-35
2021/05/18 14:57:25;;;;;;;1.15;0.63;;;22.80;50.20;;;;;;5033252;28;20083;-36
2021/05/18 14:59:51;;;;;;;2.25;0.50;;;22.80;50.10;;;;;;5034116;28;20054;-35
2021/05/18 15:02:17;;;;;;;2.13;0.85;;;22.80;50.10;;;;;;5031809;28;20033;-36
2021/05/18 15:04:43;;;;;;;0.80;0.40;;;22.80;50.10;;;;;;5032572;28;20034;-35
2021/05/18 15:07:09;;;;;;;0.68;0.40;;;22.80;50.20;;;;;;5033898;28;20043;-36
2021/05/18 15:09:36;;;;;;;0.77;0.65;;;22.80;50.20;;;;;;5033044;28;20027;-36
2021/05/18 15:12:03;;;;;;;0.40;0.20;;;22.70;50.10;;;;;;5034498;28;20045;-36
2021/05/18 15:14:28;;;;;;;0.75;0.30;;;22.70;50.10;;;;;;5030108;28;20732;-36
2021/05/18 15:16:54;;;;;;;3.42;0.40;;;22.70;50.20;;;;;;5035166;28;20021;-36
2021/05/18 15:19:22;;;;;;;1.40;0.40;;;22.60;49.20;;;;;;5032570;28;20489;-36
2021/05/18 15:22:05;;;;;;;0.80;0.30;;;22.50;48.60;;;;;;5033141;28;20034;-35
2021/05/18 15:24:31;;;;;;;1.33;0.50;;;22.40;46.60;;;;;;5032100;28;20376;-37
2021/05/18 15:26:57;;;;;;;5.30;0.65;;;22.00;43.80;;;;;;5032174;28;20108;-35
2021/05/18 15:29:24;;;;;;;3.65;0.60;;;21.60;44.70;;;;;;5037077;28;20088;-36
2021/05/18 15:31:50;;;;;;;0.93;0.30;;;21.20;44.70;;;;;;5033208;28;20105;-35
2021/05/18 15:34:16;;;;;;;1.48;0.43;;;21.00;43.70;;;;;;5032574;28;20051;-44
2021/05/18 15:36:44;;;;;;;4.35;0.70;;;20.30;43.70;;;;;;5028888;28;20653;-37
2021/05/18 15:39:09;;;;;;;6.18;0.60;;;20.10;45.40;;;;;;5019321;28;20044;-35
2021/05/18 15:41:35;;;;;;;5.07;0.65;;;20.60;44.90;;;;;;5029531;28;20041;-35
2021/05/18 15:44:02;;;;;;;4.57;0.80;;;21.00;45.00;;;;;;5030383;28;20404;-35
2021/05/18 15:46:29;;;;;;;4.88;1.33;;;21.10;44.00;;;;;;5035214;28;20076;-35
2021/05/18 15:48:54;;;;;;;1.77;0.50;;;21.10;43.70;;;;;;5030592;28;20029;-35
2021/05/18 15:51:20;;;;;;;2.53;0.43;;;20.70;42.80;;;;;;5029284;28;20049;-35
2021/05/18 15:53:46;;;;;;;2.90;0.80;;;20.80;42.30;;;;;;5033959;28;20029;-35
2021/05/18 15:56:12;;;;;;;11.50;0.80;;;20.50;43.30;;;;;;5013283;28;20483;-35
2021/05/18 15:58:38;;;;;;;8.80;1.00;;;20.80;43.80;;;;;;5029161;28;20077;-35
2021/05/18 16:01:07;;;;;;;1.65;0.60;;;20.80;42.90;;;;;;5029915;28;20038;-35
2021/05/18 16:03:33;;;;;;;0.82;0.40;;;20.20;42.90;;;;;;5013152;28;20399;-35
2021/05/18 16:06:03;;;;;;;2.50;0.40;;;20.10;42.90;;;;;;5030131;28;20041;-35
2021/05/18 16:11:05;;;;;;;1.42;0.50;;;20.10;44.00;;;;;;5030921;28;20033;-41
2021/05/18 16:13:32;;;;;;;0.85;0.43;;;19.80;43.90;;;;;;5024232;28;20055;-35
2021/05/18 16:16:10;;;;;;;0.43;0.32;;;20.00;44.10;;;;;;5033575;28;20025;-37
2021/05/18 16:18:38;;;;;;;8.77;1.52;;;20.00;44.80;;;;;;5031669;28;20593;-36
2021/05/18 16:21:05;;;;;;;8.07;0.95;;;19.60;48.40;;;;;;5032113;28;20044;-35
2021/05/18 16:23:32;;;;;;;4.32;0.80;;;20.20;46.80;;;;;;5031559;28;20360;-35
2021/05/18 16:25:57;;;;;;;5.22;1.27;;;20.80;45.80;;;;;;5032103;28;20037;-39
2021/05/18 16:28:24;;;;;;;5.65;1.02;;;21.10;45.40;;;;;;5031326;28;20037;-36
2021/05/18 16:30:51;;;;;;;5.80;0.90;;;21.40;45.30;;;;;;5032316;28;20033;-35
2021/05/18 16:33:17;;;;;;;5.45;1.45;;;21.60;44.90;;;;;;5030572;28;20037;-48
2021/05/18 16:35:44;;;;;;;7.55;0.98;;;21.80;44.80;;;;;;5032539;28;20053;-35
2021/05/18 16:38:09;;;;;;;6.25;0.80;;;21.90;45.00;;;;;;5031967;28;20040;-35
2021/05/18 16:40:35;;;;;;;5.63;1.17;;;22.00;45.00;;;;;;5031900;28;20033;-36
2021/05/18 16:43:03;;;;;;;5.35;0.85;;;22.00;45.00;;;;;;5031342;28;20033;-35
2021/05/18 16:45:29;;;;;;;4.47;1.75;;;22.10;45.10;;;;;;5031815;28;20033;-35
2021/05/18 16:47:54;;;;;;;7.28;1.15;;;22.10;45.10;;;;;;5039113;28;20026;-35
2021/05/18 16:50:20;;;;;;;2.40;0.80;;;22.10;45.30;;;;;;5031584;28;20413;-36
2021/05/18 16:52:46;;;;;;;5.05;1.17;;;22.20;45.50;;;;;;5030416;28;20040;-35
2021/05/18 16:55:13;;;;;;;4.00;1.00;;;22.20;45.60;;;;;;5032178;28;20033;-36
2021/05/18 16:57:39;;;;;;;6.47;1.40;;;22.20;45.80;;;;;;5030274;28;20029;-36
2021/05/18 17:00:10;;;;;;;6.00;1.20;;;22.10;46.30;;;;;;5031626;28;20071;-46
2021/05/18 17:02:38;;;;;;;4.20;1.25;;;22.10;47.30;;;;;;5033443;28;20458;-36
2021/05/18 17:05:08;;;;;;;9.57;1.13;;;22.10;47.20;;;;;;5030880;28;20048;-37
2021/05/18 17:07:34;;;;;;;3.88;0.82;;;22.20;47.00;;;;;;5036463;28;20029;-35
2021/05/18 17:10:00;;;;;;;4.75;1.15;;;22.30;46.80;;;;;;5039921;28;20025;-35
2021/05/18 17:12:26;;;;;;;4.75;2.00;;;22.40;46.90;;;;;;5029490;28;20043;-35
2021/05/18 17:14:52;;;;;;;4.15;0.95;;;22.50;46.90;;;;;;5030583;28;20026;-35
2021/05/18 17:17:18;;;;;;;2.90;1.10;;;22.50;46.90;;;;;;5012738;28;20054;-45
2021/05/18 17:19:45;;;;;;;8.45;1.83;;;22.60;46.80;;;;;;5009230;28;20108;-40
2021/05/18 17:22:13;;;;;;;3.90;0.95;;;22.60;46.80;;;;;;5008599;28;20124;-35
2021/05/18 17:24:39;;;;;;;3.67;0.80;;;22.60;46.80;;;;;;5008635;28;20061;-35
2021/05/18 17:27:05;;;;;;;7.47;0.73;;;22.60;47.00;;;;;;5009354;28;20185;-35
2021/05/18 17:29:32;;;;;;;5.47;0.82;;;22.60;47.00;;;;;;5008469;28;20490;-36
2021/05/18 17:31:58;;;;;;;2.95;1.00;;;22.60;47.20;;;;;;5007681;28;20438;-36
2021/05/18 17:34:25;;;;;;;4.68;1.00;;;22.50;47.30;;;;;;5009787;28;20038;-36
2021/05/18 17:36:51;;;;;;;2.97;0.93;;;22.40;47.50;;;;;;5008864;28;20042;-35
2021/05/18 17:39:19;;;;;;;5.15;1.00;;;22.40;47.90;;;;;;5007468;28;20487;-46
2021/05/18 17:41:46;;;;;;;3.25;1.02;;;22.50;47.80;;;;;;5009222;28;20038;-35
2021/05/18 17:44:11;;;;;;;3.67;1.23;;;22.40;47.80;;;;;;4992759;28;20060;-35
2021/05/18 17:46:37;;;;;;;3.90;0.70;;;22.30;48.20;;;;;;5010964;28;20108;-39
2021/05/18 17:49:04;;;;;;;7.88;0.80;;;22.30;48.00;;;;;;5026816;28;20073;-36
2021/05/18 17:51:34;;;;;;;3.08;0.80;;;22.40;48.00;;;;;;5029821;28;20030;-35
2021/05/18 17:54:03;;;;;;;4.13;1.17;;;22.40;48.00;;;;;;5029571;28;20453;-37
2021/05/18 17:56:29;;;;;;;3.08;0.80;;;22.40;48.70;;;;;;5022642;28;20485;-36
2021/05/18 17:58:55;;;;;;;7.93;0.80;;;22.40;48.10;;;;;;5026514;28;20152;-37
2021/05/18 18:01:21;;;;;;;7.65;1.20;;;22.40;48.20;;;;;;5029907;28;20488;-46
2021/05/18 18:03:47;;;;;;;2.40;0.90;;;22.40;48.20;;;;;;5029570;28;20116;-35
2021/05/18 18:06:13;;;;;;;3.13;1.05;;;22.40;48.10;;;;;;5031005;28;20082;-36
2021/05/18 18:08:41;;;;;;;3.95;1.13;;;22.40;48.20;;;;;;5029712;28;20029;-36